Time,TemperatureF,DewpointF,PressureIn,WindDirection,WindDirectionDegrees,WindSpeedMPH,WindSpeedGustMPH,Humidity,HourlyPrecipIn,Conditions,Clouds,dailyrainin,SoftwareType,DateUTC
2013-06-01 00:01:00,73.3,67.1,29.97,West,263,0.0,0.0,81,0.00,,,0.00,Wunderground v.1.15,2013-06-01 04:01:00,
2013-06-01 00:11:00,73.0,67.2,29.98,West,263,0.0,0.0,82,0.00,,,0.00,Wunderground v.1.15,2013-06-01 04:11:00,
2013-06-01 00:21:00,72.7,67.2,29.97,WSW,250,0.0,0.0,83,0.00,,,0.00,Wunderground v.1.15,2013-06-01 04:21:00,
2013-06-01 00:31:00,72.3,66.8,29.97,West,263,0.0,0.0,83,0.00,,,0.00,Wunderground v.1.15,2013-06-01 04:31:00,
2013-06-01 00:41:00,71.8,66.7,29.96,West,263,0.0,0.0,84,0.00,,,0.00,Wunderground v.1.15,2013-06-01 04:41:00,
2013-06-01 00:51:00,71.5,66.8,29.96,West,263,0.0,0.0,85,0.00,,,0.00,Wunderground v.1.15,2013-06-01 04:51:00,
2013-06-01 01:01:00,71.1,66.7,29.96,West,263,0.0,0.0,86,0.00,,,0.00,Wunderground v.1.15,2013-06-01 05:01:00,
2013-06-01 01:11:00,70.6,66.2,29.96,West,263,0.0,0.0,86,0.00,,,0.00,Wunderground v.1.15,2013-06-01 05:11:00,
2013-06-01 01:21:00,70.3,66.2,29.96,West,263,0.0,0.0,87,0.00,,,0.00,Wunderground v.1.15,2013-06-01 05:21:00,
2013-06-01 01:31:00,69.8,66.1,29.96,West,263,0.0,0.0,88,0.00,,,0.00,Wunderground v.1.15,2013-06-01 05:31:00,
2013-06-01 01:41:00,69.4,66.0,29.96,West,263,0.0,0.0,89,0.00,,,0.00,Wunderground v.1.15,2013-06-01 05:41:00,
2013-06-01 01:51:00,69.1,65.7,29.95,West,263,0.0,0.0,89,0.00,,,0.00,Wunderground v.1.15,2013-06-01 05:51:00,
2013-06-01 02:01:00,68.8,65.7,29.95,West,263,0.0,0.0,90,0.00,,,0.00,Wunderground v.1.15,2013-06-01 06:01:00,
2013-06-01 02:11:00,68.4,65.4,29.95,West,263,0.0,0.0,90,0.00,,,0.00,Wunderground v.1.15,2013-06-01 06:11:00,
2013-06-01 02:21:00,68.1,65.4,29.95,West,263,0.0,0.0,91,0.00,,,0.00,Wunderground v.1.15,2013-06-01 06:21:00,
2013-06-01 02:31:00,67.8,65.1,29.95,West,263,0.0,0.0,91,0.00,,,0.00,Wunderground v.1.15,2013-06-01 06:31:00,
2013-06-01 02:41:00,67.6,65.2,29.95,West,263,0.0,0.0,92,0.00,,,0.00,Wunderground v.1.15,2013-06-01 06:41:00,
2013-06-01 02:51:00,67.4,65.0,29.95,West,263,0.0,0.0,92,0.00,,,0.00,Wunderground v.1.15,2013-06-01 06:51:00,
2013-06-01 03:01:00,67.3,65.2,29.95,West,263,0.0,0.0,93,0.00,,,0.00,Wunderground v.1.15,2013-06-01 07:01:00,
2013-06-01 03:11:00,66.9,64.8,29.95,West,263,0.0,0.0,93,0.00,,,0.00,Wunderground v.1.15,2013-06-01 07:11:00,
2013-06-01 03:21:00,66.8,64.7,29.95,West,263,0.0,0.0,93,0.00,,,0.00,Wunderground v.1.15,2013-06-01 07:21:00,
2013-06-01 03:31:00,66.6,64.5,29.95,West,263,0.0,0.0,93,0.00,,,0.00,Wunderground v.1.15,2013-06-01 07:31:00,
2013-06-01 03:41:00,66.3,64.2,29.95,West,263,0.0,0.0,93,0.00,,,0.00,Wunderground v.1.15,2013-06-01 07:41:00,
2013-06-01 03:51:00,66.1,64.3,29.95,West,263,0.0,0.0,94,0.00,,,0.00,Wunderground v.1.15,2013-06-01 07:51:00,
2013-06-01 04:01:00,66.0,64.2,29.95,West,263,0.0,0.0,94,0.00,,,0.00,Wunderground v.1.15,2013-06-01 08:01:00,
2013-06-01 04:11:00,65.8,64.0,29.94,West,263,0.0,0.0,94,0.00,,,0.00,Wunderground v.1.15,2013-06-01 08:11:00,
2013-06-01 04:21:00,65.6,63.8,29.95,West,263,0.0,0.0,94,0.00,,,0.00,Wunderground v.1.15,2013-06-01 08:21:00,
2013-06-01 04:31:00,65.5,63.7,29.95,West,263,0.0,0.0,94,0.00,,,0.00,Wunderground v.1.15,2013-06-01 08:31:00,
2013-06-01 04:41:00,65.3,63.8,29.95,West,263,0.0,0.0,95,0.00,,,0.00,Wunderground v.1.15,2013-06-01 08:41:00,
2013-06-01 04:51:00,65.0,63.5,29.95,West,263,0.0,0.0,95,0.00,,,0.00,Wunderground v.1.15,2013-06-01 08:51:00,
2013-06-01 05:01:00,64.8,63.3,29.95,West,263,0.0,0.0,95,0.00,,,0.00,Wunderground v.1.15,2013-06-01 09:01:00,
2013-06-01 05:11:00,64.7,63.2,29.95,West,263,0.0,0.0,95,0.00,,,0.00,Wunderground v.1.15,2013-06-01 09:11:00,
2013-06-01 05:21:00,64.3,62.8,29.95,West,263,0.0,0.0,95,0.00,,,0.00,Wunderground v.1.15,2013-06-01 09:21:00,
2013-06-01 05:31:00,64.2,62.7,29.95,West,263,0.0,0.0,95,0.00,,,0.00,Wunderground v.1.15,2013-06-01 09:31:00,
2013-06-01 05:41:00,64.2,63.0,29.95,West,263,0.0,0.0,96,0.00,,,0.00,Wunderground v.1.15,2013-06-01 09:41:00,
2013-06-01 05:51:00,64.0,62.8,29.95,West,263,0.0,0.0,96,0.00,,,0.00,Wunderground v.1.15,2013-06-01 09:51:00,
2013-06-01 06:01:00,64.2,63.0,29.95,West,263,0.0,0.0,96,0.00,,,0.00,Wunderground v.1.15,2013-06-01 10:01:00,
2013-06-01 06:11:00,64.3,63.1,29.95,West,263,0.0,0.0,96,0.00,,,0.00,Wunderground v.1.15,2013-06-01 10:11:00,
2013-06-01 06:21:00,64.7,63.5,29.95,West,263,0.0,0.0,96,0.00,,,0.00,Wunderground v.1.15,2013-06-01 10:21:00,
2013-06-01 06:31:00,64.8,63.6,29.95,West,263,0.0,0.0,96,0.00,,,0.00,Wunderground v.1.15,2013-06-01 10:31:00,
2013-06-01 06:41:00,65.5,64.6,29.95,West,265,0.0,0.0,97,0.00,,,0.00,Wunderground v.1.15,2013-06-01 10:41:00,
2013-06-01 06:51:00,66.3,65.1,29.96,West,263,0.0,0.0,96,0.00,,,0.00,Wunderground v.1.15,2013-06-01 10:51:00,
2013-06-01 07:01:00,67.1,65.3,29.96,WSW,253,1.0,2.0,94,0.00,,,0.00,Wunderground v.1.15,2013-06-01 11:01:00,
2013-06-01 07:11:00,68.4,65.4,29.96,South,181,0.0,0.0,90,0.00,,,0.00,Wunderground v.1.15,2013-06-01 11:11:00,
2013-06-01 07:21:00,69.4,65.7,29.95,SW,225,0.0,0.0,88,0.00,,,0.00,Wunderground v.1.15,2013-06-01 11:21:00,
2013-06-01 07:31:00,70.1,65.7,29.95,SW,214,1.0,1.0,86,0.00,,,0.00,Wunderground v.1.15,2013-06-01 11:31:00,
2013-06-01 07:41:00,71.1,65.0,29.95,West,264,1.0,1.0,81,0.00,,,0.00,Wunderground v.1.15,2013-06-01 11:41:00,
2013-06-01 07:51:00,72.3,64.7,29.96,South,187,1.0,2.0,77,0.00,,,0.00,Wunderground v.1.15,2013-06-01 11:51:00,
2013-06-01 08:01:00,73.3,65.7,29.96,WSW,256,0.0,2.0,77,0.00,,,0.00,Wunderground v.1.15,2013-06-01 12:01:00,
2013-06-01 08:11:00,74.2,65.4,29.96,WSW,245,2.0,2.0,74,0.00,,,0.00,Wunderground v.1.15,2013-06-01 12:11:00,
2013-06-01 08:21:00,75.1,65.9,29.96,West,264,1.0,3.0,73,0.00,,,0.00,Wunderground v.1.15,2013-06-01 12:21:00,
2013-06-01 08:31:00,76.1,66.0,29.96,NE,56,2.0,2.0,71,0.00,,,0.00,Wunderground v.1.15,2013-06-01 12:31:00,
2013-06-01 08:41:00,77.4,66.4,29.96,NW,304,1.0,1.0,69,0.00,,,0.00,Wunderground v.1.15,2013-06-01 12:41:00,
2013-06-01 08:51:00,78.5,67.1,29.95,West,266,0.0,0.0,68,0.00,,,0.00,Wunderground v.1.15,2013-06-01 12:51:00,
2013-06-01 09:01:00,79.4,66.2,29.95,SSE,158,2.0,2.0,64,0.00,,,0.00,Wunderground v.1.15,2013-06-01 13:01:00,
2013-06-01 09:11:00,81.1,67.3,29.95,North,0,1.0,1.0,63,0.00,,,0.00,Wunderground v.1.15,2013-06-01 13:11:00,
2013-06-01 09:21:00,82.6,67.3,29.96,SW,221,1.0,2.0,60,0.00,,,0.00,Wunderground v.1.15,2013-06-01 13:21:00,
2013-06-01 09:31:00,83.8,67.4,29.96,ESE,116,1.0,1.0,58,0.00,,,0.00,Wunderground v.1.15,2013-06-01 13:31:00,
2013-06-01 09:41:00,84.7,67.3,29.96,SSW,212,1.0,1.0,56,0.00,,,0.00,Wunderground v.1.15,2013-06-01 13:41:00,
2013-06-01 09:51:00,85.7,67.1,29.95,SW,234,2.0,2.0,54,0.00,,,0.00,Wunderground v.1.15,2013-06-01 13:51:00,
2013-06-01 10:01:00,86.3,66.6,29.95,ESE,120,1.0,2.0,52,0.00,,,0.00,Wunderground v.1.15,2013-06-01 14:01:00,
2013-06-01 10:11:00,87.2,69.1,29.95,West,263,2.0,2.0,55,0.00,,,0.00,Wunderground v.1.15,2013-06-01 14:11:00,
2013-06-01 10:21:00,87.8,68.0,29.95,NW,304,2.0,2.0,52,0.00,,,0.00,Wunderground v.1.15,2013-06-01 14:21:00,
2013-06-01 10:31:00,88.2,66.6,29.95,West,272,2.0,2.0,49,0.00,,,0.00,Wunderground v.1.15,2013-06-01 14:31:00,
2013-06-01 10:41:00,88.6,65.2,29.95,SW,217,1.0,3.0,46,0.00,,,0.00,Wunderground v.1.15,2013-06-01 14:41:00,
2013-06-01 10:51:00,89.3,65.2,29.95,SSW,196,2.0,3.0,45,0.00,,,0.00,Wunderground v.1.15,2013-06-01 14:51:00,
2013-06-01 11:01:00,89.5,67.8,29.95,ENE,65,2.0,4.0,49,0.00,,,0.00,Wunderground v.1.15,2013-06-01 15:01:00,
2013-06-01 11:11:00,89.7,63.6,29.94,West,278,3.0,3.0,42,0.00,,,0.00,Wunderground v.1.15,2013-06-01 15:11:00,
2013-06-01 11:21:00,90.1,66.5,29.94,SE,143,2.0,4.0,46,0.00,,,0.00,Wunderground v.1.15,2013-06-01 15:21:00,
2013-06-01 11:31:00,91.2,65.6,29.94,WNW,294,1.0,6.0,43,0.00,,,0.00,Wunderground v.1.15,2013-06-01 15:31:00,
2013-06-01 11:41:00,91.2,62.0,29.93,SW,214,3.0,5.0,38,0.00,,,0.00,Wunderground v.1.15,2013-06-01 15:41:00,
2013-06-01 11:51:00,91.0,60.3,29.93,WSW,255,2.0,2.0,36,0.00,,,0.00,Wunderground v.1.15,2013-06-01 15:51:00,
2013-06-01 12:01:00,91.2,62.0,29.93,SW,233,3.0,4.0,38,0.00,,,0.00,Wunderground v.1.15,2013-06-01 16:01:00,
2013-06-01 12:11:00,91.6,60.9,29.93,NW,305,2.0,2.0,36,0.00,,,0.00,Wunderground v.1.15,2013-06-01 16:11:00,
2013-06-01 12:21:00,91.4,65.8,29.93,WSW,255,2.0,2.0,43,0.00,,,0.00,Wunderground v.1.15,2013-06-01 16:21:00,
2013-06-01 12:31:00,91.2,64.9,29.93,WSW,238,2.0,3.0,42,0.00,,,0.00,Wunderground v.1.15,2013-06-01 16:31:00,
2013-06-01 12:41:00,91.0,66.7,29.92,South,173,3.0,3.0,45,0.00,,,0.00,Wunderground v.1.15,2013-06-01 16:41:00,
2013-06-01 12:51:00,91.6,67.3,29.92,South,188,2.0,4.0,45,0.00,,,0.00,Wunderground v.1.15,2013-06-01 16:51:00,
2013-06-01 13:01:00,91.2,63.5,29.92,NW,314,3.0,3.0,40,0.00,,,0.00,Wunderground v.1.15,2013-06-01 17:01:00,
2013-06-01 13:11:00,91.6,63.1,29.90,ESE,116,2.0,2.0,39,0.00,,,0.00,Wunderground v.1.15,2013-06-01 17:11:00,
2013-06-01 13:21:00,90.7,64.5,29.90,WSW,252,4.0,4.0,42,0.00,,,0.00,Wunderground v.1.15,2013-06-01 17:21:00,
2013-06-01 13:31:00,91.0,63.3,29.90,SW,225,3.0,3.0,40,0.00,,,0.00,Wunderground v.1.15,2013-06-01 17:31:00,
2013-06-01 13:41:00,91.6,66.6,29.90,SW,228,2.0,6.0,44,0.00,,,0.00,Wunderground v.1.15,2013-06-01 17:41:00,
2013-06-01 13:51:00,91.6,63.9,29.90,NW,316,3.0,3.0,40,0.00,,,0.00,Wunderground v.1.15,2013-06-01 17:51:00,
2013-06-01 14:01:00,91.6,66.6,29.90,WNW,283,4.0,4.0,44,0.00,,,0.00,Wunderground v.1.15,2013-06-01 18:01:00,
2013-06-01 14:11:00,91.8,63.3,29.90,WSW,250,3.0,3.0,39,0.00,,,0.00,Wunderground v.1.15,2013-06-01 18:11:00,
2013-06-01 14:21:00,91.4,63.7,29.89,SE,129,3.0,3.0,40,0.00,,,0.00,Wunderground v.1.15,2013-06-01 18:21:00,
2013-06-01 14:31:00,91.4,64.4,29.89,North,0,3.0,3.0,41,0.00,,,0.00,Wunderground v.1.15,2013-06-01 18:31:00,
2013-06-01 14:41:00,91.6,63.9,29.89,SSE,148,4.0,4.0,40,0.00,,,0.00,Wunderground v.1.15,2013-06-01 18:41:00,
2013-06-01 14:51:00,91.6,63.1,29.89,SSW,195,4.0,4.0,39,0.00,,,0.00,Wunderground v.1.15,2013-06-01 18:51:00,
2013-06-01 15:01:00,92.3,63.0,29.89,South,186,3.0,3.0,38,0.00,,,0.00,Wunderground v.1.15,2013-06-01 19:01:00,
2013-06-01 15:11:00,92.7,63.4,29.89,WSW,257,4.0,8.0,38,0.00,,,0.00,Wunderground v.1.15,2013-06-01 19:11:00,
2013-06-01 15:21:00,92.3,66.6,29.88,SW,226,4.0,4.0,43,0.00,,,0.00,Wunderground v.1.15,2013-06-01 19:21:00,
2013-06-01 15:31:00,92.7,63.4,29.88,WSW,248,3.0,3.0,38,0.00,,,0.00,Wunderground v.1.15,2013-06-01 19:31:00,
2013-06-01 15:41:00,92.5,64.7,29.88,WSW,243,3.0,3.0,40,0.00,,,0.00,Wunderground v.1.15,2013-06-01 19:41:00,
2013-06-01 15:51:00,93.2,61.5,29.87,NNW,338,3.0,5.0,35,0.00,,,0.00,Wunderground v.1.15,2013-06-01 19:51:00,
2013-06-01 16:01:00,92.9,61.2,29.87,SW,236,3.0,3.0,35,0.00,,,0.00,Wunderground v.1.15,2013-06-01 20:01:00,
2013-06-01 16:11:00,92.5,63.2,29.87,NNW,332,2.0,2.0,38,0.00,,,0.00,Wunderground v.1.15,2013-06-01 20:11:00,
2013-06-01 16:21:00,92.7,64.1,29.87,East,96,2.0,5.0,39,0.00,,,0.00,Wunderground v.1.15,2013-06-01 20:21:00,
2013-06-01 16:31:00,92.1,64.3,29.87,WSW,242,2.0,2.0,40,0.00,,,0.00,Wunderground v.1.15,2013-06-01 20:31:00,
2013-06-01 16:41:00,92.3,64.5,29.87,West,264,3.0,3.0,40,0.00,,,0.00,Wunderground v.1.15,2013-06-01 20:41:00,
2013-06-01 16:51:00,92.1,64.3,29.87,West,274,3.0,3.0,40,0.00,,,0.00,Wunderground v.1.15,2013-06-01 20:51:00,
2013-06-01 17:01:00,92.1,63.6,29.87,WSW,255,3.0,6.0,39,0.00,,,0.00,Wunderground v.1.15,2013-06-01 21:01:00,
2013-06-01 17:11:00,91.6,64.6,29.86,WSW,240,2.0,3.0,41,0.00,,,0.00,Wunderground v.1.15,2013-06-01 21:11:00,
2013-06-01 17:21:00,91.2,69.4,29.86,WSW,242,2.0,2.0,49,0.00,,,0.00,Wunderground v.1.15,2013-06-01 21:21:00,
2013-06-01 17:31:00,90.7,64.5,29.86,WSW,242,3.0,3.0,42,0.00,,,0.00,Wunderground v.1.15,2013-06-01 21:31:00,
2013-06-01 17:41:00,90.3,65.4,29.86,SW,219,2.0,3.0,44,0.00,,,0.00,Wunderground v.1.15,2013-06-01 21:41:00,
2013-06-01 17:51:00,89.9,65.1,29.86,NE,46,3.0,3.0,44,0.00,,,0.00,Wunderground v.1.15,2013-06-01 21:51:00,
2013-06-01 18:01:00,89.5,66.6,29.86,WSW,243,3.0,3.0,47,0.00,,,0.00,Wunderground v.1.15,2013-06-01 22:01:00,
2013-06-01 18:11:00,89.0,65.5,29.85,SW,232,4.0,4.0,46,0.00,,,0.00,Wunderground v.1.15,2013-06-01 22:11:00,
2013-06-01 18:21:00,88.2,66.0,29.85,WSW,256,2.0,2.0,48,0.00,,,0.00,Wunderground v.1.15,2013-06-01 22:21:00,
2013-06-01 18:31:00,87.6,66.1,29.85,WSW,242,2.0,2.0,49,0.00,,,0.00,Wunderground v.1.15,2013-06-01 22:31:00,
2013-06-01 18:41:00,87.2,68.0,29.85,West,267,3.0,3.0,53,0.00,,,0.00,Wunderground v.1.15,2013-06-01 22:41:00,
2013-06-01 18:51:00,86.5,66.2,29.86,SSW,208,2.0,2.0,51,0.00,,,0.00,Wunderground v.1.15,2013-06-01 22:51:00,
2013-06-01 19:01:00,86.1,67.0,29.86,SW,218,4.0,4.0,53,0.00,,,0.00,Wunderground v.1.15,2013-06-01 23:01:00,
2013-06-01 19:11:00,85.3,67.3,29.86,SW,236,2.0,2.0,55,0.00,,,0.00,Wunderground v.1.15,2013-06-01 23:11:00,
2013-06-01 19:21:00,84.7,67.8,29.86,SE,132,1.0,1.0,57,0.00,,,0.00,Wunderground v.1.15,2013-06-01 23:21:00,
2013-06-01 19:31:00,84.1,67.7,29.86,South,170,2.0,2.0,58,0.00,,,0.00,Wunderground v.1.15,2013-06-01 23:31:00,
2013-06-01 19:41:00,83.8,67.9,29.87,WSW,251,2.0,2.0,59,0.00,,,0.00,Wunderground v.1.15,2013-06-01 23:41:00,
2013-06-01 19:51:00,83.6,67.8,29.87,WNW,283,3.0,5.0,59,0.00,,,0.00,Wunderground v.1.15,2013-06-01 23:51:00,
2013-06-01 20:01:00,83.2,67.4,29.87,SSW,192,2.0,2.0,59,0.00,,,0.00,Wunderground v.1.15,2013-06-02 00:01:00,
2013-06-01 20:11:00,83.0,67.7,29.87,West,262,3.0,3.0,60,0.00,,,0.00,Wunderground v.1.15,2013-06-02 00:11:00,
2013-06-01 20:21:00,82.4,67.6,29.87,WSW,257,3.0,3.0,61,0.00,,,0.00,Wunderground v.1.15,2013-06-02 00:21:00,
2013-06-01 20:31:00,82.0,67.7,29.87,West,274,2.0,6.0,62,0.00,,,0.00,Wunderground v.1.15,2013-06-02 00:31:00,
2013-06-01 20:41:00,81.4,68.1,29.87,WSW,243,3.0,4.0,64,0.00,,,0.00,Wunderground v.1.15,2013-06-02 00:41:00,
2013-06-01 20:51:00,81.2,68.3,29.87,SW,231,3.0,5.0,65,0.00,,,0.00,Wunderground v.1.15,2013-06-02 00:51:00,
2013-06-01 21:01:00,81.1,67.8,29.87,WSW,255,3.0,3.0,64,0.00,,,0.00,Wunderground v.1.15,2013-06-02 01:01:00,
2013-06-01 21:11:00,80.7,67.8,29.88,WSW,248,2.0,3.0,65,0.00,,,0.00,Wunderground v.1.15,2013-06-02 01:11:00,
2013-06-01 21:21:00,80.5,67.6,29.89,WSW,255,3.0,3.0,65,0.00,,,0.00,Wunderground v.1.15,2013-06-02 01:21:00,
2013-06-01 21:31:00,80.3,67.9,29.89,SW,221,2.0,2.0,66,0.00,,,0.00,Wunderground v.1.15,2013-06-02 01:31:00,
2013-06-01 21:41:00,79.8,67.9,29.89,SW,223,1.0,1.0,67,0.00,,,0.00,Wunderground v.1.15,2013-06-02 01:41:00,
2013-06-01 21:51:00,79.4,67.5,29.89,SSW,207,2.0,2.0,67,0.00,,,0.00,Wunderground v.1.15,2013-06-02 01:51:00,
2013-06-01 22:01:00,78.8,67.3,29.89,SW,229,2.0,2.0,68,0.00,,,0.00,Wunderground v.1.15,2013-06-02 02:01:00,
2013-06-01 22:11:00,78.6,67.6,29.89,WSW,244,2.0,2.0,69,0.00,,,0.00,Wunderground v.1.15,2013-06-02 02:11:00,
2013-06-01 22:21:00,78.5,67.5,29.88,WSW,253,3.0,3.0,69,0.00,,,0.00,Wunderground v.1.15,2013-06-02 02:21:00,
2013-06-01 22:31:00,78.3,67.3,29.88,West,269,3.0,3.0,69,0.00,,,0.00,Wunderground v.1.15,2013-06-02 02:31:00,
2013-06-01 22:41:00,77.9,66.9,29.88,WSW,255,2.0,5.0,69,0.00,,,0.00,Wunderground v.1.15,2013-06-02 02:41:00,
2013-06-01 22:51:00,77.7,66.7,29.88,WSW,237,2.0,2.0,69,0.00,,,0.00,Wunderground v.1.15,2013-06-02 02:51:00,
2013-06-01 23:01:00,77.6,67.0,29.88,West,266,2.0,2.0,70,0.00,,,0.00,Wunderground v.1.15,2013-06-02 03:01:00,
2013-06-01 23:11:00,77.2,66.7,29.88,South,181,2.0,2.0,70,0.00,,,0.00,Wunderground v.1.15,2013-06-02 03:11:00,
2013-06-01 23:21:00,77.2,66.7,29.89,West,269,3.0,3.0,70,0.00,,,0.00,Wunderground v.1.15,2013-06-02 03:21:00,
2013-06-01 23:31:00,77.0,66.5,29.89,WSW,251,1.0,1.0,70,0.00,,,0.00,Wunderground v.1.15,2013-06-02 03:31:00,
2013-06-01 23:41:00,76.7,66.6,29.88,SW,214,1.0,1.0,71,0.00,,,0.00,Wunderground v.1.15,2013-06-02 03:41:00,
2013-06-01 23:51:00,76.3,66.6,29.88,WSW,255,2.0,4.0,72,0.00,,,0.00,Wunderground v.1.15,2013-06-02 03:51:00,